createdAt,value
2022-10-22T00:01:44.329Z,90.89
2022-10-22T00:04:50.671Z,91.01
2022-10-22T00:07:52.470Z,91.32
2022-10-22T00:10:54.729Z,91.28
2022-10-22T00:13:58.130Z,91.42
2022-10-22T00:17:01.400Z,91.28
2022-10-22T00:20:04.578Z,91.51
2022-10-22T00:23:07.019Z,91.57
2022-10-22T00:26:08.967Z,91.84
2022-10-22T00:29:10.831Z,91.97
2022-10-22T00:32:12.901Z,92.00
2022-10-22T00:35:14.673Z,92.22
2022-10-22T00:38:16.394Z,91.91
2022-10-22T00:41:18.178Z,92.05
2022-10-22T00:44:57.774Z,92.06
2022-10-22T00:48:02.603Z,92.10
2022-10-22T00:51:06.751Z,91.66
2022-10-22T00:54:09.171Z,91.24
2022-10-22T00:57:10.961Z,91.53
2022-10-22T01:00:13.114Z,91.60
2022-10-22T01:03:15.379Z,91.90
2022-10-22T01:06:25.441Z,92.13
2022-10-22T01:09:52.407Z,92.17
2022-10-22T01:13:00.411Z,92.04
2022-10-22T01:16:12.021Z,91.91
2022-10-22T01:19:26.296Z,92.09
2022-10-22T01:22:44.716Z,92.18
2022-10-22T01:26:05.426Z,92.23
2022-10-22T01:29:16.487Z,92.88
2022-10-22T01:32:23.914Z,92.62
2022-10-22T01:35:29.224Z,92.81
2022-10-22T01:38:31.426Z,92.99
2022-10-22T01:41:34.830Z,93.18
2022-10-22T01:44:37.635Z,93.22
2022-10-22T01:47:53.918Z,93.26
2022-10-22T01:50:58.557Z,93.44
2022-10-22T01:54:07.048Z,93.17
2022-10-22T01:57:08.719Z,92.73
2022-10-22T02:00:12.683Z,92.86
2022-10-22T02:03:21.343Z,93.26
2022-10-22T02:06:26.106Z,93.28
2022-10-22T02:09:29.207Z,93.36
2022-10-22T02:12:32.698Z,93.26
2022-10-22T02:15:36.273Z,93.21
2022-10-22T02:18:40.789Z,93.09
2022-10-22T02:21:42.927Z,93.04
2022-10-22T02:24:45.018Z,92.99
2022-10-22T02:27:49.882Z,92.82
2022-10-22T02:31:02.091Z,93.02
2022-10-22T02:34:10.234Z,93.26
2022-10-22T02:37:12.832Z,93.29
2022-10-22T02:40:14.726Z,93.03
2022-10-22T02:43:18.473Z,93.04
2022-10-22T02:46:20.246Z,92.91
2022-10-22T02:49:22.074Z,92.85
2022-10-22T02:52:23.850Z,92.88
2022-10-22T02:55:25.619Z,92.77
2022-10-22T02:58:27.352Z,92.79
2022-10-22T03:01:29.247Z,92.81
2022-10-22T03:04:31.157Z,93.17
2022-10-22T03:07:33.630Z,93.21
2022-10-22T03:10:35.440Z,93.20
2022-10-22T03:13:37.932Z,93.11
2022-10-22T03:16:39.698Z,93.00
2022-10-22T03:19:42.259Z,92.70
2022-10-22T03:22:45.116Z,92.79
2022-10-22T03:25:48.486Z,92.88
2022-10-22T03:28:50.362Z,92.65
2022-10-22T03:31:52.842Z,92.64
2022-10-22T03:34:54.686Z,92.90
2022-10-22T03:37:56.547Z,93.31
2022-10-22T03:40:58.639Z,93.42
2022-10-22T03:44:02.135Z,93.47
2022-10-22T03:47:04.398Z,93.08
2022-10-22T03:50:06.925Z,93.21
2022-10-22T03:53:10.840Z,93.39
2022-10-22T03:56:13.502Z,93.34
2022-10-22T03:59:15.541Z,93.12
2022-10-22T04:02:17.372Z,92.95
2022-10-22T04:05:19.115Z,92.64
2022-10-22T04:08:20.828Z,92.88
2022-10-22T04:11:22.433Z,92.81
2022-10-22T04:14:24.311Z,93.06
2022-10-22T04:17:26.078Z,93.72
2022-10-22T04:20:27.686Z,93.65
2022-10-22T04:23:29.496Z,93.95
2022-10-22T04:26:31.321Z,93.84
2022-10-22T04:29:33.186Z,93.80
2022-10-22T04:32:34.940Z,93.71
2022-10-22T04:35:39.928Z,94.21
2022-10-22T04:38:43.003Z,94.46
2022-10-22T04:41:44.772Z,94.46
2022-10-22T04:44:46.649Z,94.76
2022-10-22T04:47:48.411Z,95.27
2022-10-22T04:50:50.303Z,94.25
2022-10-22T04:53:52.246Z,94.11
2022-10-22T04:56:53.946Z,94.09
2022-10-22T04:59:55.724Z,94.29
2022-10-22T05:02:57.406Z,94.14
2022-10-22T05:06:01.134Z,94.03
2022-10-22T05:09:08.832Z,93.98
2022-10-22T05:12:10.666Z,94.13
2022-10-22T05:15:12.272Z,94.01
2022-10-22T05:18:15.867Z,94.52
2022-10-22T05:21:19.951Z,94.34
2022-10-22T05:24:22.175Z,94.21
2022-10-22T05:27:23.858Z,94.11
2022-10-22T05:30:25.484Z,94.50
2022-10-22T05:33:29.083Z,94.39
2022-10-22T05:36:30.930Z,94.25
2022-10-22T05:39:36.937Z,93.48
2022-10-22T05:42:39.050Z,93.65
2022-10-22T05:45:42.421Z,93.09
2022-10-22T05:48:44.791Z,93.39
2022-10-22T05:51:47.169Z,93.55
2022-10-22T05:54:48.930Z,94.12
2022-10-22T05:57:50.735Z,94.58
2022-10-22T06:00:52.511Z,94.55
2022-10-22T06:04:01.981Z,94.65
2022-10-22T06:07:03.994Z,95.25
2022-10-22T06:10:06.788Z,96.57
2022-10-22T06:13:08.610Z,97.22
2022-10-22T06:16:10.673Z,96.42
2022-10-22T06:19:16.915Z,95.26
2022-10-22T06:22:18.711Z,94.58
2022-10-22T06:25:20.515Z,94.70
2022-10-22T06:31:25.940Z,94.70
2022-10-22T06:34:27.701Z,94.72
2022-10-22T06:37:29.407Z,95.39
2022-10-22T06:40:31.300Z,95.47
2022-10-22T06:43:33.106Z,95.19
2022-10-22T06:46:34.887Z,95.16
2022-10-22T06:49:36.928Z,95.00
2022-10-22T06:52:38.787Z,94.90
2022-10-22T06:55:40.589Z,94.78
2022-10-22T06:58:42.431Z,95.04
2022-10-22T07:01:44.408Z,95.36
2022-10-22T07:04:46.347Z,95.32
2022-10-22T07:07:48.168Z,95.45
2022-10-22T07:10:49.961Z,95.46
2022-10-22T07:13:53.963Z,95.66
2022-10-22T07:16:55.973Z,95.34
2022-10-22T07:19:58.899Z,95.19
2022-10-22T07:23:00.633Z,95.43
2022-10-22T07:26:02.968Z,95.44
2022-10-22T07:29:05.152Z,94.92
2022-10-22T07:32:06.995Z,94.03
2022-10-22T07:35:09.140Z,93.76
2022-10-22T07:38:10.899Z,93.38
2022-10-22T07:41:13.734Z,93.55
2022-10-22T07:44:15.554Z,93.28
2022-10-22T07:47:17.342Z,93.62
2022-10-22T07:50:19.409Z,93.31
2022-10-22T07:53:24.307Z,94.16
2022-10-22T07:56:26.061Z,94.41
2022-10-22T07:59:27.860Z,94.57
2022-10-22T08:02:29.591Z,94.48
2022-10-22T08:05:31.416Z,93.76
2022-10-22T08:08:33.671Z,93.85
2022-10-22T08:11:35.480Z,94.49
2022-10-22T08:14:37.257Z,94.29
2022-10-22T08:17:39.237Z,94.14
2022-10-22T08:20:42.412Z,94.61
2022-10-22T08:23:44.196Z,95.20
2022-10-22T08:26:46.308Z,95.58
2022-10-22T08:29:48.371Z,95.67
2022-10-22T08:32:53.086Z,95.13
2022-10-22T08:35:56.633Z,94.71
2022-10-22T08:38:58.356Z,94.18
2022-10-22T08:42:25.306Z,94.12
2022-10-22T08:45:52.510Z,92.71
2022-10-22T08:48:56.378Z,91.89
2022-10-22T08:51:58.727Z,91.37
2022-10-22T08:55:02.335Z,91.00
2022-10-22T08:58:19.057Z,89.71
2022-10-22T09:01:37.268Z,90.35
2022-10-22T09:04:48.970Z,91.49
2022-10-22T09:07:50.942Z,91.17
2022-10-22T09:11:06.180Z,90.37
2022-10-22T09:17:34.124Z,91.03
2022-10-22T09:20:44.582Z,90.82
2022-10-22T09:24:03.575Z,91.28
2022-10-22T09:27:15.947Z,91.40
2022-10-22T09:30:20.443Z,91.66
2022-10-22T09:33:27.617Z,91.95
2022-10-22T09:36:30.110Z,91.55
2022-10-22T09:39:34.830Z,91.45
2022-10-22T09:42:36.481Z,91.10
2022-10-22T09:45:38.171Z,90.75
2022-10-22T09:48:42.310Z,90.08
2022-10-22T09:51:57.701Z,90.58
2022-10-22T09:55:02.661Z,90.61
2022-10-22T09:58:04.934Z,90.19
2022-10-22T10:01:06.746Z,91.00
2022-10-22T10:04:14.619Z,91.12
2022-10-22T10:07:19.659Z,91.13
2022-10-22T10:10:50.804Z,90.73
2022-10-22T10:14:06.956Z,90.42
2022-10-22T10:17:27.563Z,90.30
2022-10-22T10:20:59.104Z,89.65
2022-10-22T10:24:03.940Z,89.72
2022-10-22T10:27:30.034Z,89.35
2022-10-22T10:30:32.845Z,89.77
2022-10-22T10:33:47.400Z,89.67
2022-10-22T10:36:59.860Z,89.81
2022-10-22T10:40:17.129Z,89.79
2022-10-22T10:43:40.325Z,89.60
2022-10-22T10:46:50.462Z,89.35
2022-10-22T10:49:54.987Z,88.98
2022-10-22T10:52:56.912Z,89.07
2022-10-22T10:56:02.942Z,88.99
2022-10-22T10:59:18.787Z,89.00
2022-10-22T11:02:48.405Z,88.90
2022-10-22T11:05:54.579Z,88.79
2022-10-22T11:09:01.251Z,88.73
2022-10-22T11:12:07.467Z,88.72
2022-10-22T11:15:16.830Z,88.61
2022-10-22T11:18:32.683Z,88.72
2022-10-22T11:21:42.174Z,88.73
2022-10-22T11:24:50.888Z,89.00
2022-10-22T11:28:03.174Z,88.95
2022-10-22T11:31:16.082Z,88.96
2022-10-22T11:34:33.835Z,89.29
2022-10-22T11:37:39.295Z,89.31
2022-10-22T11:40:48.797Z,89.51
2022-10-22T11:43:59.040Z,89.76
2022-10-22T11:47:24.497Z,89.84
2022-10-22T11:50:27.786Z,90.06
2022-10-22T11:53:37.766Z,90.51
2022-10-22T11:56:39.590Z,90.50
2022-10-22T11:59:49.770Z,90.91
2022-10-22T12:03:15.959Z,90.91
2022-10-22T12:06:21.795Z,91.03
2022-10-22T12:09:26.944Z,91.23
2022-10-22T12:12:36.202Z,91.11
2022-10-22T12:15:46.940Z,91.19
2022-10-22T12:18:49.146Z,91.47
2022-10-22T12:22:07.705Z,91.71
2022-10-22T12:25:18.250Z,91.98
2022-10-22T12:28:20.127Z,92.12
2022-10-22T12:31:21.940Z,92.21
2022-10-22T12:34:25.249Z,92.50
2022-10-22T12:37:29.635Z,92.79
2022-10-22T12:40:35.234Z,93.00
2022-10-22T12:43:39.660Z,92.97
2022-10-22T12:46:42.381Z,93.37
2022-10-22T12:49:48.715Z,92.85
2022-10-22T12:52:50.723Z,92.19
2022-10-22T12:55:54.492Z,92.19
2022-10-22T12:59:02.258Z,92.59
2022-10-22T13:02:22.920Z,93.10
2022-10-22T13:05:28.132Z,93.30
2022-10-22T13:08:29.969Z,93.33
2022-10-22T13:11:34.987Z,93.46
2022-10-22T13:14:38.644Z,93.53
2022-10-22T13:17:42.461Z,93.67
2022-10-22T13:21:01.830Z,93.72
2022-10-22T13:24:20.385Z,93.44
2022-10-22T13:27:23.757Z,93.79
2022-10-22T13:30:27.956Z,94.02
2022-10-22T13:33:33.777Z,94.40
2022-10-22T13:36:35.973Z,94.60
2022-10-22T13:39:37.792Z,94.61
2022-10-22T13:42:40.187Z,94.56
2022-10-22T13:45:44.727Z,94.67
2022-10-22T13:48:48.258Z,94.85
2022-10-22T13:51:51.508Z,95.08
2022-10-22T13:54:53.389Z,95.06
2022-10-22T13:58:10.215Z,95.07
2022-10-22T14:01:27.929Z,95.40
2022-10-22T14:04:29.883Z,95.27
2022-10-22T14:07:31.690Z,95.44
2022-10-22T14:10:33.517Z,95.45
2022-10-22T14:13:35.433Z,95.52
2022-10-22T14:16:37.698Z,95.71
2022-10-22T14:19:39.616Z,95.55
2022-10-22T14:22:41.515Z,95.64
2022-10-22T14:25:43.241Z,95.58
2022-10-22T14:29:07.961Z,95.88
2022-10-22T14:32:15.141Z,96.08
2022-10-22T14:35:20.516Z,96.29
2022-10-22T14:38:22.654Z,96.52
2022-10-22T14:41:26.141Z,96.69
2022-10-22T14:44:27.838Z,96.76
2022-10-22T14:47:29.802Z,96.90
2022-10-22T14:50:31.607Z,96.80
2022-10-22T14:53:33.640Z,96.81
2022-10-22T14:59:43.068Z,96.96
2022-10-22T15:02:45.412Z,97.00
2022-10-22T15:05:47.330Z,97.07
2022-10-22T15:08:49.317Z,97.09
2022-10-22T15:11:51.434Z,97.04
2022-10-22T15:14:53.309Z,97.02
2022-10-22T15:17:54.998Z,97.13
2022-10-22T15:20:57.557Z,97.11
2022-10-22T15:24:01.165Z,97.17
2022-10-22T15:27:03.612Z,97.14
2022-10-22T15:30:07.334Z,97.30
2022-10-22T15:33:09.171Z,97.25
2022-10-22T15:36:16.210Z,97.45
2022-10-22T15:39:18.577Z,97.46
2022-10-22T15:42:20.434Z,97.59
2022-10-22T15:45:24.430Z,97.53
2022-10-22T15:48:26.199Z,97.66
2022-10-22T15:51:28.044Z,97.83
2022-10-22T15:54:30.655Z,97.94
2022-10-22T15:57:33.201Z,97.97
2022-10-22T16:00:35.037Z,98.05
2022-10-22T16:03:37.272Z,98.32
2022-10-22T16:06:45.675Z,98.39
2022-10-22T16:09:48.481Z,98.47
2022-10-22T16:12:51.762Z,98.58
2022-10-22T16:15:56.399Z,98.74
2022-10-22T16:18:58.479Z,98.65
2022-10-22T16:22:02.197Z,98.85
2022-10-22T16:25:04.245Z,98.84
2022-10-22T16:28:06.815Z,98.94
2022-10-22T16:31:12.173Z,98.95
2022-10-22T16:34:13.925Z,99.01
2022-10-22T16:37:16.078Z,99.09
2022-10-22T16:40:18.001Z,99.16
2022-10-22T16:43:19.966Z,99.16
2022-10-22T16:46:22.695Z,99.27
2022-10-22T16:49:24.644Z,99.34
2022-10-22T16:52:26.785Z,99.30
2022-10-22T16:55:28.486Z,99.36
2022-10-22T16:58:30.663Z,99.47
2022-10-22T17:01:36.726Z,99.71
2022-10-22T17:04:41.595Z,99.75
2022-10-22T17:07:43.267Z,99.69
2022-10-22T17:10:45.062Z,99.80
2022-10-22T17:13:49.094Z,99.90
2022-10-22T17:16:53.878Z,99.95
2022-10-22T17:19:55.619Z,100.00
2022-10-22T17:22:57.596Z,99.99
2022-10-22T17:26:01.862Z,99.99
2022-10-22T17:29:04.571Z,100.00
2022-10-22T17:32:06.472Z,100.00
2022-10-22T17:35:08.772Z,100.00
2022-10-22T17:38:10.532Z,100.00
2022-10-22T17:41:17.994Z,100.00
2022-10-22T17:44:19.742Z,100.00
2022-10-22T17:47:22.299Z,100.00
2022-10-22T17:50:24.051Z,100.00
2022-10-22T17:53:25.764Z,100.00
2022-10-22T17:56:30.023Z,100.00
2022-10-22T17:59:32.676Z,100.00
2022-10-22T18:02:34.631Z,100.00
2022-10-22T18:05:36.280Z,100.00
2022-10-22T18:08:38.045Z,100.00
2022-10-22T18:11:40.167Z,100.00
2022-10-22T18:14:41.859Z,100.00
2022-10-22T18:17:44.046Z,100.00
2022-10-22T18:20:50.833Z,100.00
2022-10-22T18:23:53.117Z,100.00
2022-10-22T18:26:55.395Z,100.00
2022-10-22T18:29:57.474Z,100.00
2022-10-22T18:32:59.237Z,100.00
2022-10-22T18:36:06.795Z,100.00
2022-10-22T18:39:08.800Z,100.00
2022-10-22T18:42:10.587Z,100.00
2022-10-22T18:45:12.362Z,100.00
2022-10-22T18:48:18.189Z,100.00
2022-10-22T18:51:20.151Z,100.00
2022-10-22T18:54:23.627Z,100.00
2022-10-22T18:57:26.130Z,100.00
2022-10-22T19:00:27.901Z,100.00
2022-10-22T19:03:29.559Z,100.00
2022-10-22T19:06:35.713Z,100.00
2022-10-22T19:09:37.614Z,100.00
2022-10-22T19:12:39.411Z,100.00
2022-10-22T19:15:41.285Z,100.00
2022-10-22T19:18:43.009Z,100.00
2022-10-22T19:21:45.300Z,100.00
2022-10-22T19:24:49.535Z,100.00
2022-10-22T19:27:51.471Z,100.00
2022-10-22T19:30:54.716Z,100.00
2022-10-22T19:33:56.935Z,100.00
2022-10-22T19:36:59.052Z,100.00
2022-10-22T19:40:00.909Z,100.00
2022-10-22T19:43:02.655Z,100.00
2022-10-22T19:46:05.946Z,100.00
2022-10-22T19:49:07.770Z,100.00
2022-10-22T19:52:09.624Z,100.00
2022-10-22T19:55:11.595Z,100.00
2022-10-22T19:58:14.036Z,100.00
2022-10-22T20:01:17.569Z,100.00
2022-10-22T20:04:19.723Z,100.00
2022-10-22T20:07:22.574Z,100.00
2022-10-22T20:10:24.333Z,100.00
2022-10-22T20:13:26.278Z,100.00
2022-10-22T20:16:30.266Z,100.00
2022-10-22T20:19:32.822Z,100.00
2022-10-22T20:22:34.484Z,100.00
2022-10-22T20:25:41.590Z,100.00
2022-10-22T20:28:43.370Z,100.00
2022-10-22T20:31:45.746Z,100.00
2022-10-22T20:34:47.592Z,100.00
2022-10-22T20:37:49.800Z,100.00
2022-10-22T20:40:59.834Z,100.00
2022-10-22T20:44:02.082Z,100.00
2022-10-22T20:47:06.601Z,100.00
2022-10-22T20:50:09.746Z,100.00
2022-10-22T20:53:13.497Z,100.00
2022-10-22T20:56:18.852Z,100.00
2022-10-22T20:59:24.254Z,100.00
2022-10-22T21:02:28.158Z,100.00
2022-10-22T21:05:29.866Z,100.00
2022-10-22T21:08:32.247Z,100.00
2022-10-22T21:11:35.102Z,100.00
2022-10-22T21:14:36.976Z,100.00
2022-10-22T21:17:40.441Z,100.00
2022-10-22T21:20:42.206Z,100.00
2022-10-22T21:23:44.101Z,100.00
2022-10-22T21:26:46.491Z,100.00
2022-10-22T21:29:48.177Z,100.00
2022-10-22T21:32:49.986Z,100.00
2022-10-22T21:35:53.541Z,100.00
2022-10-22T21:38:55.423Z,100.00
2022-10-22T21:41:57.131Z,100.00
2022-10-22T21:44:58.955Z,100.00
2022-10-22T21:48:00.819Z,100.00
2022-10-22T21:51:11.003Z,100.00
2022-10-22T21:54:13.152Z,100.00
2022-10-22T21:57:15.017Z,100.00
2022-10-22T22:00:20.766Z,100.00
2022-10-22T22:03:23.613Z,100.00
2022-10-22T22:06:29.543Z,100.00
2022-10-22T22:09:34.090Z,100.00
2022-10-22T22:12:36.402Z,100.00
2022-10-22T22:15:38.082Z,100.00
2022-10-22T22:18:41.015Z,100.00
2022-10-22T22:21:45.966Z,100.00
2022-10-22T22:24:47.830Z,100.00
2022-10-22T22:27:49.745Z,100.00
2022-10-22T22:30:51.725Z,100.00
2022-10-22T22:34:22.844Z,100.00
2022-10-22T22:37:24.663Z,100.00
2022-10-22T22:40:29.154Z,100.00
2022-10-22T22:43:32.562Z,100.00
2022-10-22T22:46:34.476Z,100.00
2022-10-22T22:49:37.038Z,100.00
2022-10-22T22:52:39.000Z,100.00
2022-10-22T22:55:41.061Z,100.00
2022-10-22T22:58:43.203Z,100.00
2022-10-22T23:01:48.023Z,100.00
2022-10-22T23:05:10.676Z,100.00
2022-10-22T23:08:26.531Z,100.00
2022-10-22T23:11:45.628Z,100.00
2022-10-22T23:14:51.476Z,100.00
2022-10-22T23:17:53.285Z,100.00
2022-10-22T23:20:55.039Z,100.00
2022-10-22T23:24:00.224Z,100.00
2022-10-22T23:27:04.108Z,100.00
2022-10-22T23:30:06.474Z,100.00
2022-10-22T23:33:12.230Z,100.00
2022-10-22T23:36:14.333Z,100.00
2022-10-22T23:39:19.737Z,100.00
2022-10-22T23:42:21.532Z,100.00
2022-10-22T23:45:23.357Z,100.00
2022-10-22T23:48:25.261Z,100.00
2022-10-22T23:51:27.544Z,100.00
2022-10-22T23:54:29.321Z,100.00
2022-10-22T23:57:31.082Z,100.00
